Time;durP1;ratioP1;P1;durP2;ratioP2;P2;SDS_P1;SDS_P2;PMS_P1;PMS_P2;Temp;Humidity;BMP_temperature;BMP_pressure;BME280_temperature;BME280_humidity;BME280_pressure;Samples;Min_cycle;Max_cycle;Signal;HPM_P1;HPM_P2
2023/06/03 00:02:10;;;;;;;2.63;1.70;;;8.30;1.00;;;;;;5005698;28;20439;-57
2023/06/03 00:04:41;;;;;;;1.60;1.50;;;8.20;1.00;;;;;;5007265;28;20447;-59
2023/06/03 00:07:07;;;;;;;3.90;1.60;;;8.20;1.00;;;;;;5007332;28;20188;-55
2023/06/03 00:09:33;;;;;;;4.03;2.23;;;8.10;1.00;;;;;;5009425;28;21211;-58
2023/06/03 00:11:58;;;;;;;3.57;1.77;;;8.10;1.00;;;;;;5006779;28;20440;-57
2023/06/03 00:14:24;;;;;;;3.40;2.00;;;8.00;1.00;;;;;;5006969;28;20196;-58
2023/06/03 00:16:50;;;;;;;2.50;1.47;;;8.00;1.00;;;;;;5006435;28;20227;-58
2023/06/03 00:19:17;;;;;;;2.97;2.07;;;7.90;1.00;;;;;;5003657;28;20247;-58
2023/06/03 00:21:46;;;;;;;3.80;1.70;;;7.90;1.00;;;;;;5006488;28;20195;-57
2023/06/03 00:24:16;;;;;;;1.60;1.50;;;7.90;1.00;;;;;;5010302;28;20446;-57
2023/06/03 00:26:42;;;;;;;1.97;1.77;;;7.90;1.00;;;;;;5007003;28;20420;-57
2023/06/03 00:29:09;;;;;;;4.73;2.20;;;7.80;1.00;;;;;;5005354;28;20454;-57
2023/06/03 00:31:34;;;;;;;2.33;1.70;;;7.80;1.00;;;;;;5008465;28;20240;-57
2023/06/03 00:34:00;;;;;;;4.53;1.87;;;7.70;1.00;;;;;;5005115;28;20438;-57
2023/06/03 00:36:26;;;;;;;2.87;1.93;;;7.70;1.00;;;;;;5006989;28;20270;-56
2023/06/03 00:38:51;;;;;;;3.37;1.90;;;7.60;1.00;;;;;;5008888;28;20222;-57
2023/06/03 00:41:19;;;;;;;3.57;1.67;;;7.50;1.00;;;;;;5010808;28;20599;-57
2023/06/03 00:43:45;;;;;;;3.97;2.50;;;7.50;1.00;;;;;;5011022;28;20192;-57
2023/06/03 00:46:11;;;;;;;2.60;1.90;;;7.50;1.00;;;;;;5012415;28;20436;-56
2023/06/03 00:48:38;;;;;;;1.67;1.57;;;7.40;6.20;;;;;;5014304;28;20446;-58
2023/06/03 00:51:04;;;;;;;2.70;1.90;;;7.40;28.50;;;;;;5010478;28;20238;-57
2023/06/03 00:53:29;;;;;;;2.20;2.00;;;7.40;32.20;;;;;;5007480;28;20447;-57
2023/06/03 00:55:55;;;;;;;3.17;1.80;;;7.30;59.30;;;;;;5009956;28;20692;-57
2023/06/03 00:58:21;;;;;;;6.60;1.77;;;7.30;84.30;;;;;;5010929;28;20279;-57
2023/06/03 01:00:47;;;;;;;1.60;1.50;;;7.30;76.20;;;;;;5010920;28;20246;-57
2023/06/03 01:03:14;;;;;;;2.20;2.00;;;7.20;96.00;;;;;;5010003;28;20188;-55
2023/06/03 01:05:41;;;;;;;2.40;1.90;;;7.20;97.00;;;;;;5010770;28;20474;-57
2023/06/03 01:08:15;;;;;;;3.60;2.27;;;7.10;99.90;;;;;;5011242;28;20446;-57
2023/06/03 01:10:47;;;;;;;2.93;2.20;;;7.10;99.90;;;;;;5009330;28;20439;-57
2023/06/03 01:13:42;;;;;;;6.00;2.50;;;7.00;99.90;;;;;;5011396;28;20448;-57
2023/06/03 01:16:09;;;;;;;3.07;2.03;;;7.00;99.90;;;;;;5009976;28;20565;-57
2023/06/03 01:18:36;;;;;;;3.07;2.30;;;6.90;99.90;;;;;;5009031;28;20447;-56
2023/06/03 01:21:03;;;;;;;2.70;2.50;;;6.90;99.90;;;;;;5010341;28;20490;-57
2023/06/03 01:23:33;;;;;;;3.20;2.10;;;6.90;99.90;;;;;;5007676;28;20450;-57
2023/06/03 01:26:04;;;;;;;6.43;2.20;;;6.90;99.90;;;;;;5007112;28;20456;-56
2023/06/03 01:28:31;;;;;;;4.20;2.03;;;6.80;99.90;;;;;;5010060;28;20842;-57
2023/06/03 01:30:58;;;;;;;4.70;1.90;;;6.90;99.90;;;;;;5008458;28;20454;-55
2023/06/03 01:33:26;;;;;;;4.37;2.30;;;6.80;99.90;;;;;;5010234;28;20968;-57
2023/06/03 01:35:54;;;;;;;2.27;1.90;;;6.80;99.90;;;;;;5006830;28;21121;-57
2023/06/03 01:38:21;;;;;;;2.87;2.20;;;6.80;99.90;;;;;;5008312;28;20816;-57
2023/06/03 01:40:47;;;;;;;3.10;2.20;;;6.70;99.90;;;;;;5009511;28;20479;-58
2023/06/03 01:43:13;;;;;;;2.67;2.47;;;6.70;99.90;;;;;;5009260;28;20443;-57
2023/06/03 01:45:38;;;;;;;3.73;2.70;;;6.60;1.00;;;;;;5011103;28;20546;-57
2023/06/03 01:48:04;;;;;;;5.93;2.10;;;6.60;1.00;;;;;;5009500;28;20831;-58
2023/06/03 01:50:30;;;;;;;3.83;2.30;;;6.60;1.00;;;;;;5009286;28;20187;-58
2023/06/03 01:52:56;;;;;;;3.70;2.20;;;6.60;1.00;;;;;;5007839;28;20219;-58
2023/06/03 01:55:24;;;;;;;2.33;2.03;;;6.60;1.00;;;;;;5007463;28;20269;-57
2023/06/03 01:57:50;;;;;;;2.53;2.10;;;6.50;1.00;;;;;;5010845;28;20239;-58
2023/06/03 02:00:16;;;;;;;3.90;2.40;;;6.50;1.00;;;;;;5009320;28;20439;-60
2023/06/03 02:02:42;;;;;;;3.00;2.30;;;6.50;1.00;;;;;;5011739;28;20228;-66
2023/06/03 02:05:09;;;;;;;3.77;2.47;;;6.50;16.10;;;;;;5010274;28;20579;-60
2023/06/03 02:07:35;;;;;;;3.20;2.37;;;6.50;25.10;;;;;;5009929;28;20934;-63
2023/06/03 02:10:00;;;;;;;3.00;2.40;;;6.50;74.00;;;;;;5010399;28;20601;-57
2023/06/03 02:12:26;;;;;;;2.60;2.13;;;6.50;13.60;;;;;;5008987;28;20186;-57
2023/06/03 02:14:53;;;;;;;4.10;2.27;;;6.40;1.00;;;;;;5009736;28;20199;-58
2023/06/03 02:17:24;;;;;;;2.60;2.03;;;6.40;1.00;;;;;;5009401;28;20626;-57
2023/06/03 02:19:50;;;;;;;4.07;2.57;;;6.40;1.00;;;;;;5006189;28;21012;-58
2023/06/03 02:22:17;;;;;;;4.50;2.20;;;6.30;26.40;;;;;;5008708;28;20443;-58
2023/06/03 02:24:43;;;;;;;3.60;2.60;;;6.30;76.90;;;;;;5009157;28;20439;-58
2023/06/03 02:27:09;;;;;;;2.73;2.00;;;6.30;99.90;;;;;;5010418;28;20999;-57
2023/06/03 02:29:35;;;;;;;5.10;2.80;;;6.30;99.90;;;;;;5005387;28;20455;-56
2023/06/03 02:32:01;;;;;;;7.17;2.43;;;6.20;99.90;;;;;;5010301;28;20628;-56
2023/06/03 02:34:27;;;;;;;3.53;2.47;;;6.20;99.90;;;;;;5010035;28;20524;-57
2023/06/03 02:36:53;;;;;;;4.20;2.53;;;6.10;99.90;;;;;;5010179;28;20505;-57
2023/06/03 02:39:19;;;;;;;3.77;2.07;;;6.10;99.90;;;;;;5008956;28;20926;-58
2023/06/03 02:41:49;;;;;;;1.97;1.77;;;6.00;99.90;;;;;;5009193;28;20435;-58
2023/06/03 02:44:16;;;;;;;2.80;2.20;;;6.00;1.00;;;;;;5010387;28;20453;-58
2023/06/03 02:46:42;;;;;;;2.43;2.00;;;5.90;99.90;;;;;;5009026;28;20442;-57
2023/06/03 02:49:08;;;;;;;6.07;2.27;;;5.90;99.90;;;;;;5006819;28;20440;-57
2023/06/03 02:51:39;;;;;;;3.67;2.43;;;5.90;1.00;;;;;;5007525;28;20443;-58
2023/06/03 02:54:04;;;;;;;3.57;2.20;;;5.90;1.00;;;;;;5009168;28;20443;-58
2023/06/03 02:56:30;;;;;;;4.40;2.00;;;5.90;81.60;;;;;;5008492;28;20568;-58
2023/06/03 02:58:56;;;;;;;7.67;2.93;;;5.90;1.00;;;;;;5010149;28;20188;-55
2023/06/03 03:01:22;;;;;;;2.70;2.30;;;5.90;1.00;;;;;;5005372;28;20188;-58
2023/06/03 03:03:48;;;;;;;2.70;2.10;;;5.90;1.00;;;;;;5007312;28;20200;-58
2023/06/03 03:06:19;;;;;;;4.13;2.10;;;5.90;1.00;;;;;;5008673;28;20489;-58
2023/06/03 03:08:46;;;;;;;3.50;2.37;;;5.90;1.00;;;;;;5006784;28;20202;-58
2023/06/03 03:11:13;;;;;;;2.53;2.33;;;5.90;1.00;;;;;;5006138;28;20443;-58
2023/06/03 03:13:39;;;;;;;2.73;2.10;;;5.90;1.00;;;;;;5007061;28;20439;-58
2023/06/03 03:16:04;;;;;;;2.43;2.13;;;5.80;5.20;;;;;;5007576;28;20573;-57
2023/06/03 03:18:30;;;;;;;3.90;2.07;;;5.80;99.90;;;;;;5009605;28;20431;-58
2023/06/03 03:20:56;;;;;;;3.17;2.43;;;5.80;99.90;;;;;;5006737;28;20675;-58
2023/06/03 03:23:22;;;;;;;3.97;2.50;;;5.80;1.00;;;;;;5008137;28;20459;-58
2023/06/03 03:25:48;;;;;;;2.60;2.37;;;5.80;99.90;;;;;;5006903;28;20192;-58
2023/06/03 03:28:14;;;;;;;2.57;2.37;;;5.80;99.90;;;;;;5008326;28;20188;-58
2023/06/03 03:30:40;;;;;;;7.30;2.50;;;5.80;14.00;;;;;;5005872;28;20790;-58
2023/06/03 03:33:06;;;;;;;10.37;2.87;;;5.90;99.90;;;;;;5005195;28;20539;-57
2023/06/03 03:35:39;;;;;;;6.00;2.33;;;5.90;99.90;;;;;;5011599;28;20219;-58
2023/06/03 03:38:06;;;;;;;3.73;2.70;;;5.90;99.90;;;;;;5008080;28;20444;-58
2023/06/03 03:40:35;;;;;;;3.67;2.50;;;5.90;61.20;;;;;;5007222;28;20454;-58
2023/06/03 03:43:02;;;;;;;3.10;2.27;;;6.00;1.00;;;;;;5007165;28;20469;-56
2023/06/03 03:45:36;;;;;;;3.83;2.47;;;6.00;1.00;;;;;;5005021;28;21091;-58
2023/06/03 03:48:06;;;;;;;4.70;2.33;;;6.10;57.20;;;;;;5009651;28;20494;-58
2023/06/03 03:50:51;;;;;;;2.30;2.03;;;6.10;6.10;;;;;;5007426;28;20443;-58
2023/06/03 03:53:18;;;;;;;2.20;2.00;;;6.10;1.00;;;;;;5010443;28;20435;-58
2023/06/03 03:55:54;;;;;;;6.07;2.53;;;6.20;1.00;;;;;;5006256;28;20453;-58
2023/06/03 03:58:26;;;;;;;2.50;2.30;;;6.20;1.00;;;;;;5007510;28;20423;-59
2023/06/03 04:00:59;;;;;;;3.67;2.63;;;6.20;1.00;;;;;;5005361;28;20505;-58
2023/06/03 04:03:25;;;;;;;3.47;2.30;;;6.30;1.00;;;;;;5008501;28;20441;-58
2023/06/03 04:05:52;;;;;;;3.90;2.30;;;6.30;1.00;;;;;;5009075;28;20435;-59
2023/06/03 04:08:39;;;;;;;4.57;3.00;;;6.40;1.00;;;;;;5007793;28;20439;-58
2023/06/03 04:11:15;;;;;;;3.17;2.30;;;6.40;99.90;;;;;;5007320;28;20447;-57
2023/06/03 04:13:41;;;;;;;4.23;2.53;;;6.50;99.90;;;;;;5000279;28;20492;-58
2023/06/03 04:16:10;;;;;;;4.53;3.07;;;6.50;99.90;;;;;;5009656;28;20471;-58
2023/06/03 04:18:41;;;;;;;4.80;2.40;;;6.60;99.90;;;;;;5010979;28;20206;-58
2023/06/03 04:21:12;;;;;;;3.73;2.87;;;6.70;99.90;;;;;;5012878;28;20434;-58
2023/06/03 04:23:38;;;;;;;3.63;2.90;;;6.80;99.90;;;;;;5009228;28;20440;-58
2023/06/03 04:26:04;;;;;;;3.83;2.80;;;6.90;99.90;;;;;;5009625;28;20488;-57
2023/06/03 04:28:29;;;;;;;3.67;2.90;;;7.10;1.00;;;;;;5009330;28;20223;-57
2023/06/03 04:30:55;;;;;;;5.63;3.10;;;7.20;1.00;;;;;;5011540;28;20184;-57
2023/06/03 04:33:20;;;;;;;4.77;3.53;;;7.40;1.00;;;;;;5010003;28;20188;-56
2023/06/03 04:35:46;;;;;;;2.73;2.47;;;7.50;99.90;;;;;;5012904;28;20587;-56
2023/06/03 04:38:12;;;;;;;3.60;2.80;;;7.70;99.90;;;;;;5012236;28;20251;-57
2023/06/03 04:40:38;;;;;;;3.50;2.87;;;7.90;99.90;;;;;;5009646;28;20180;-56
2023/06/03 04:43:03;;;;;;;8.30;2.97;;;8.20;1.00;;;;;;5011250;28;20443;-57
2023/06/03 04:45:31;;;;;;;3.70;2.70;;;8.40;1.00;;;;;;5011400;28;20271;-57
2023/06/03 04:48:01;;;;;;;3.00;2.80;;;8.60;99.90;;;;;;5012123;28;20203;-57
2023/06/03 04:50:27;;;;;;;5.13;2.67;;;8.90;99.90;;;;;;5008669;28;20443;-57
2023/06/03 04:52:53;;;;;;;3.70;2.80;;;9.10;62.70;;;;;;5010099;28;20443;-57
2023/06/03 04:55:19;;;;;;;4.03;2.80;;;9.30;1.00;;;;;;5011845;28;20438;-58
2023/06/03 04:57:47;;;;;;;3.43;2.67;;;9.50;1.00;;;;;;5009106;28;20278;-56
2023/06/03 05:00:16;;;;;;;3.03;2.70;;;9.80;99.90;;;;;;5007622;28;20313;-57
2023/06/03 05:02:44;;;;;;;5.47;2.80;;;10.00;99.90;;;;;;5009932;28;20492;-57
2023/06/03 05:05:10;;;;;;;3.60;2.50;;;10.20;99.90;;;;;;4998861;28;20903;-57
2023/06/03 05:07:37;;;;;;;3.20;2.83;;;10.40;99.90;;;;;;5015837;28;20450;-57
2023/06/03 05:10:03;;;;;;;10.03;2.47;;;10.60;99.90;;;;;;5015292;28;20442;-57
2023/06/03 05:12:29;;;;;;;2.53;2.33;;;10.80;99.90;;;;;;5011188;28;20439;-58
2023/06/03 05:14:54;;;;;;;3.00;2.30;;;11.00;69.30;;;;;;5011791;28;20805;-57
2023/06/03 05:17:20;;;;;;;3.13;2.47;;;11.20;16.90;;;;;;5010481;28;20282;-57
2023/06/03 05:19:45;;;;;;;4.43;2.13;;;11.50;2.40;;;;;;5009825;28;20184;-56
2023/06/03 05:22:11;;;;;;;2.47;2.23;;;11.70;1.00;;;;;;5011177;28;20206;-57
2023/06/03 05:24:36;;;;;;;5.00;2.50;;;11.90;1.00;;;;;;5009498;28;20592;-57
2023/06/03 05:27:03;;;;;;;5.00;2.10;;;12.20;1.00;;;;;;5010271;28;20183;-56
2023/06/03 05:29:29;;;;;;;6.07;2.30;;;12.30;1.00;;;;;;5008613;28;20214;-57
2023/06/03 05:31:54;;;;;;;3.47;2.10;;;12.60;1.00;;;;;;5011568;28;20832;-57
2023/06/03 05:34:20;;;;;;;5.60;2.40;;;12.90;1.00;;;;;;5011729;28;20199;-57
2023/06/03 05:36:45;;;;;;;3.40;2.53;;;13.10;1.00;;;;;;5009141;28;20654;-57
2023/06/03 05:39:12;;;;;;;2.83;1.97;;;13.40;1.00;;;;;;5009030;28;20184;-57
2023/06/03 05:41:37;;;;;;;2.63;1.83;;;13.60;1.00;;;;;;5009465;28;20199;-56
2023/06/03 05:44:03;;;;;;;2.50;1.80;;;13.90;1.00;;;;;;5010756;28;20780;-56
2023/06/03 05:46:28;;;;;;;2.90;1.90;;;14.00;1.00;;;;;;5007231;28;20201;-57
2023/06/03 05:48:54;;;;;;;4.73;2.23;;;14.10;1.00;;;;;;5009999;28;20189;-56
2023/06/03 05:51:19;;;;;;;3.40;2.27;;;14.40;1.00;;;;;;5010059;28;20195;-56
2023/06/03 05:53:45;;;;;;;4.33;1.77;;;14.50;1.00;;;;;;5009193;28;20230;-60
2023/06/03 05:56:11;;;;;;;3.97;2.23;;;14.80;1.00;;;;;;5009502;28;20582;-59
2023/06/03 05:58:38;;;;;;;3.23;2.37;;;15.00;1.00;;;;;;5008822;28;20204;-57
2023/06/03 06:01:04;;;;;;;2.23;2.00;;;15.30;1.00;;;;;;5009207;28;20751;-58
2023/06/03 06:03:29;;;;;;;2.73;1.83;;;15.50;1.00;;;;;;5008382;28;20442;-58
2023/06/03 06:05:55;;;;;;;3.17;1.90;;;15.70;1.00;;;;;;5013131;28;20188;-58
2023/06/03 06:08:21;;;;;;;4.67;1.80;;;15.90;1.00;;;;;;5010938;28;20658;-59
2023/06/03 06:10:47;;;;;;;3.40;1.70;;;16.00;1.00;;;;;;5009784;28;20472;-58
2023/06/03 06:13:12;;;;;;;9.80;2.40;;;16.20;1.00;;;;;;5010339;28;20289;-62
2023/06/03 06:15:38;;;;;;;3.90;2.23;;;16.20;1.00;;;;;;5011093;28;20205;-59
2023/06/03 06:18:04;;;;;;;4.43;2.00;;;16.40;1.00;;;;;;5007795;28;20217;-59
2023/06/03 06:20:29;;;;;;;6.60;2.33;;;16.70;1.00;;;;;;5008070;28;20186;-57
2023/06/03 06:22:55;;;;;;;5.43;1.73;;;16.80;1.00;;;;;;5008102;28;20187;-59
2023/06/03 06:25:21;;;;;;;4.50;2.03;;;17.00;1.00;;;;;;5007677;28;20286;-58
2023/06/03 06:27:47;;;;;;;3.13;2.20;;;17.10;1.00;;;;;;5005462;28;20646;-57
2023/06/03 06:30:16;;;;;;;3.67;1.63;;;17.10;99.90;;;;;;5008654;28;20498;-58
2023/06/03 06:32:50;;;;;;;1.80;1.40;;;17.00;99.90;;;;;;5008608;28;20502;-57
2023/06/03 06:35:17;;;;;;;3.97;1.60;;;16.90;99.90;;;;;;5007481;28;20551;-60
2023/06/03 06:37:43;;;;;;;2.33;1.47;;;17.00;99.90;;;;;;4993400;28;20545;-57
2023/06/03 06:40:20;;;;;;;2.50;1.57;;;16.90;99.90;;;;;;5008708;28;20906;-61
2023/06/03 06:42:46;;;;;;;9.70;2.50;;;17.00;99.90;;;;;;5009378;28;20438;-58
2023/06/03 06:45:21;;;;;;;3.10;1.40;;;17.10;99.90;;;;;;5007458;28;20443;-56
2023/06/03 06:47:47;;;;;;;3.23;1.80;;;17.40;99.90;;;;;;5008323;28;20825;-58
2023/06/03 06:50:34;;;;;;;2.30;1.57;;;17.60;99.90;;;;;;5006723;28;20450;-58
2023/06/03 06:53:01;;;;;;;3.20;1.83;;;17.50;99.90;;;;;;5000768;28;20642;-60
2023/06/03 06:55:35;;;;;;;3.40;1.70;;;17.80;99.90;;;;;;5009337;28;20438;-58
2023/06/03 06:58:00;;;;;;;1.67;1.50;;;18.20;99.90;;;;;;5008589;28;20470;-58
2023/06/03 07:00:28;;;;;;;2.30;1.60;;;18.50;99.90;;;;;;5005393;28;20449;-59
2023/06/03 07:02:54;;;;;;;2.60;1.90;;;18.50;99.90;;;;;;5008505;28;20274;-58
2023/06/03 07:05:20;;;;;;;3.40;1.80;;;18.40;99.90;;;;;;5007827;28;20530;-59
2023/06/03 07:07:47;;;;;;;3.60;2.03;;;18.30;99.90;;;;;;5008238;28;20190;-59
2023/06/03 07:10:13;;;;;;;6.33;1.53;;;18.20;99.90;;;;;;5005431;28;20199;-57
2023/06/03 07:12:39;;;;;;;5.17;2.07;;;18.40;99.90;;;;;;5013921;28;20450;-58
2023/06/03 07:15:05;;;;;;;7.55;1.88;;;18.80;99.90;;;;;;5014762;28;20422;-57
2023/06/03 07:17:30;;;;;;;2.83;1.60;;;19.30;99.90;;;;;;5014509;28;20221;-59
2023/06/03 07:19:57;;;;;;;3.63;1.70;;;19.50;99.90;;;;;;5020633;28;20454;-57
2023/06/03 07:22:23;;;;;;;1.77;1.67;;;19.40;99.90;;;;;;5025744;28;20360;-58
2023/06/03 07:24:48;;;;;;;6.40;1.70;;;19.70;99.90;;;;;;5017084;28;20490;-59
2023/06/03 07:27:26;;;;;;;8.47;1.73;;;20.20;99.90;;;;;;5027061;28;20281;-59
2023/06/03 07:29:56;;;;;;;5.10;1.50;;;20.50;99.90;;;;;;5024433;28;20190;-59
2023/06/03 07:32:24;;;;;;;2.83;1.80;;;20.80;99.90;;;;;;5014430;28;20411;-59
2023/06/03 07:34:50;;;;;;;3.13;1.30;;;20.90;99.90;;;;;;5013985;28;20912;-59
2023/06/03 07:37:17;;;;;;;6.90;1.40;;;21.10;99.90;;;;;;5013393;28;20507;-59
2023/06/03 07:39:43;;;;;;;4.07;1.30;;;21.40;99.90;;;;;;4994828;28;20198;-59
2023/06/03 07:42:29;;;;;;;3.60;1.30;;;21.40;99.90;;;;;;4994527;28;20416;-58
2023/06/03 07:44:55;;;;;;;2.40;1.70;;;21.50;99.90;;;;;;5001140;28;20187;-59
2023/06/03 07:47:21;;;;;;;1.10;1.00;;;21.60;99.90;;;;;;5014086;28;20421;-59
2023/06/03 07:49:48;;;;;;;2.07;1.30;;;21.90;99.90;;;;;;5014129;28;20423;-59
2023/06/03 07:52:23;;;;;;;4.40;1.20;;;22.10;99.90;;;;;;5014045;28;20902;-58
2023/06/03 07:54:49;;;;;;;1.70;1.10;;;22.10;99.90;;;;;;5013779;28;20430;-58
2023/06/03 07:57:15;;;;;;;4.73;1.70;;;22.30;99.90;;;;;;5013730;28;20495;-56
2023/06/03 07:59:52;;;;;;;3.27;1.40;;;22.50;99.90;;;;;;5013935;28;20276;-56
2023/06/03 08:02:18;;;;;;;2.17;1.10;;;22.70;99.90;;;;;;5013962;28;20470;-56
2023/06/03 08:04:44;;;;;;;1.73;1.07;;;22.80;99.90;;;;;;5013396;28;20461;-56
2023/06/03 08:07:10;;;;;;;2.43;1.30;;;22.70;99.90;;;;;;5013639;28;20267;-56
2023/06/03 08:09:37;;;;;;;2.70;1.50;;;22.30;99.90;;;;;;5013870;28;20426;-58
2023/06/03 08:12:05;;;;;;;6.70;2.00;;;22.30;99.90;;;;;;5013785;28;20514;-57
2023/06/03 08:14:34;;;;;;;1.93;1.20;;;22.40;99.90;;;;;;5013508;28;20949;-56
2023/06/03 08:17:11;;;;;;;1.47;1.37;;;22.60;99.90;;;;;;5013629;28;20470;-58
2023/06/03 08:19:38;;;;;;;2.50;1.27;;;22.80;99.90;;;;;;5014415;28;20425;-57
2023/06/03 08:22:20;;;;;;;4.73;1.30;;;23.00;99.90;;;;;;5014086;28;20414;-56
2023/06/03 08:24:46;;;;;;;3.70;1.50;;;23.30;99.90;;;;;;5013753;28;20873;-56
2023/06/03 08:27:11;;;;;;;3.97;1.17;;;23.30;99.90;;;;;;5014130;28;20478;-56
2023/06/03 08:29:37;;;;;;;3.33;1.20;;;23.10;99.90;;;;;;5013457;28;20647;-56
2023/06/03 08:32:02;;;;;;;2.13;1.17;;;22.90;99.90;;;;;;5013982;28;20519;-56
2023/06/03 08:34:28;;;;;;;1.13;1.03;;;23.10;99.90;;;;;;5014086;28;20191;-56
2023/06/03 08:36:54;;;;;;;1.67;1.30;;;23.30;99.90;;;;;;5013798;28;20220;-56
2023/06/03 08:39:19;;;;;;;1.97;1.07;;;23.30;99.90;;;;;;5013632;28;20642;-56
2023/06/03 08:41:50;;;;;;;6.50;1.30;;;23.50;99.90;;;;;;5013502;28;20189;-56
2023/06/03 08:44:26;;;;;;;1.73;1.13;;;23.80;99.90;;;;;;5013755;28;20178;-56
2023/06/03 08:47:12;;;;;;;1.30;1.20;;;23.40;99.90;;;;;;5013499;28;20857;-56
2023/06/03 08:49:49;;;;;;;6.10;1.20;;;23.50;99.90;;;;;;5013492;28;20417;-56
2023/06/03 08:52:17;;;;;;;2.63;1.80;;;23.70;99.90;;;;;;5013588;28;20417;-56
2023/06/03 08:54:43;;;;;;;7.30;1.53;;;24.10;99.90;;;;;;5013437;28;20417;-56
2023/06/03 08:57:18;;;;;;;2.47;1.50;;;24.20;99.90;;;;;;5012597;28;20813;-55
2023/06/03 08:59:46;;;;;;;2.97;1.50;;;24.40;99.90;;;;;;5015944;28;20186;-56
2023/06/03 09:02:13;;;;;;;1.37;1.00;;;24.30;99.90;;;;;;5016869;28;20448;-56
2023/06/03 09:04:39;;;;;;;2.20;1.10;;;24.20;99.90;;;;;;5017008;28;20864;-56
2023/06/03 09:07:06;;;;;;;6.17;1.33;;;24.50;99.90;;;;;;5016799;28;20417;-56
2023/06/03 09:09:34;;;;;;;1.33;1.20;;;24.90;99.90;;;;;;5016701;28;20431;-57
2023/06/03 09:12:01;;;;;;;3.23;1.13;;;25.10;99.90;;;;;;5016734;28;20544;-57
2023/06/03 09:14:28;;;;;;;1.90;1.20;;;25.10;99.90;;;;;;5016645;28;20426;-57
2023/06/03 09:16:54;;;;;;;3.47;1.67;;;25.00;99.90;;;;;;5016822;28;20474;-57
2023/06/03 09:19:20;;;;;;;6.70;1.40;;;24.90;99.90;;;;;;5016983;28;20538;-57
2023/06/03 09:21:47;;;;;;;3.60;1.30;;;25.10;99.90;;;;;;5015888;28;20211;-56
2023/06/03 09:24:13;;;;;;;1.80;1.50;;;24.90;99.90;;;;;;5016487;28;20196;-57
2023/06/03 09:26:39;;;;;;;5.90;1.10;;;25.10;99.90;;;;;;5016455;28;20925;-57
2023/06/03 09:29:06;;;;;;;4.50;1.33;;;24.70;99.90;;;;;;5016410;28;20182;-56
2023/06/03 09:31:32;;;;;;;2.97;1.40;;;25.10;99.90;;;;;;5016331;28;20346;-57
2023/06/03 09:33:57;;;;;;;1.93;1.30;;;25.60;99.90;;;;;;5016205;28;20435;-57
2023/06/03 09:36:25;;;;;;;1.40;1.03;;;25.80;99.90;;;;;;5015946;28;20217;-56
2023/06/03 09:38:55;;;;;;;1.47;1.10;;;25.80;99.90;;;;;;5016312;28;20183;-56
2023/06/03 09:41:25;;;;;;;1.83;1.10;;;25.90;99.90;;;;;;5016212;28;20915;-56
2023/06/03 09:43:57;;;;;;;3.57;1.10;;;25.90;99.90;;;;;;5016243;28;20474;-56
2023/06/03 09:46:24;;;;;;;3.03;1.23;;;25.60;99.90;;;;;;5016248;28;21000;-56
2023/06/03 09:48:50;;;;;;;1.30;1.17;;;25.80;99.90;;;;;;5015009;28;20915;-56
2023/06/03 09:51:16;;;;;;;3.20;0.97;;;26.40;99.90;;;;;;5015525;28;20776;-55
2023/06/03 09:53:42;;;;;;;2.93;1.20;;;26.60;99.90;;;;;;5015855;28;20420;-56
2023/06/03 09:56:25;;;;;;;2.13;1.10;;;26.70;99.90;;;;;;5015536;28;20242;-55
2023/06/03 09:58:53;;;;;;;3.37;1.10;;;26.70;99.90;;;;;;5016057;28;20184;-55
2023/06/03 10:01:31;;;;;;;3.27;1.40;;;26.50;99.90;;;;;;5015897;28;20422;-55
2023/06/03 10:03:59;;;;;;;1.93;1.50;;;26.20;99.90;;;;;;5015729;28;20423;-54
2023/06/03 10:06:24;;;;;;;2.87;1.37;;;26.10;99.90;;;;;;5015692;28;20422;-56
2023/06/03 10:08:50;;;;;;;1.57;1.10;;;26.30;99.90;;;;;;5015897;28;20419;-56
2023/06/03 10:11:16;;;;;;;2.50;1.00;;;26.30;99.90;;;;;;5013772;28;20201;-54
2023/06/03 10:13:41;;;;;;;2.27;1.20;;;26.30;99.90;;;;;;5015690;28;20184;-54
2023/06/03 10:16:11;;;;;;;2.50;1.13;;;26.40;99.90;;;;;;5015690;28;20180;-55
2023/06/03 10:18:42;;;;;;;1.67;1.10;;;26.30;99.90;;;;;;5015320;28;20180;-56
2023/06/03 10:21:12;;;;;;;5.00;1.20;;;26.50;99.90;;;;;;5015418;28;20438;-55
2023/06/03 10:23:39;;;;;;;2.30;1.10;;;26.50;99.90;;;;;;5015019;28;20502;-55
2023/06/03 10:26:08;;;;;;;1.37;1.27;;;26.40;99.90;;;;;;5015243;28;20427;-54
2023/06/03 10:28:36;;;;;;;3.83;1.40;;;26.70;99.90;;;;;;5015159;28;20466;-54
2023/06/03 10:31:03;;;;;;;1.63;1.00;;;27.00;99.90;;;;;;5015137;28;20477;-54
2023/06/03 10:33:31;;;;;;;1.17;1.07;;;26.90;99.90;;;;;;5014970;28;20414;-55
2023/06/03 10:35:58;;;;;;;3.93;1.77;;;26.80;99.90;;;;;;5014649;28;20431;-54
2023/06/03 10:38:24;;;;;;;2.97;1.30;;;27.00;99.90;;;;;;5015635;28;20776;-55
2023/06/03 10:40:50;;;;;;;4.00;1.10;;;27.20;99.90;;;;;;5014965;28;20415;-55
2023/06/03 10:43:17;;;;;;;3.90;1.40;;;26.90;99.90;;;;;;5015011;28;20996;-55
2023/06/03 10:45:43;;;;;;;2.00;1.20;;;26.80;99.90;;;;;;5014814;28;20192;-55
2023/06/03 10:48:13;;;;;;;1.57;1.13;;;27.00;99.90;;;;;;5015000;28;20430;-55
2023/06/03 10:50:51;;;;;;;1.77;1.30;;;27.00;99.90;;;;;;5014583;28;20187;-56
2023/06/03 10:53:19;;;;;;;2.07;1.40;;;27.00;99.90;;;;;;5014811;28;20923;-56
2023/06/03 10:56:22;;;;;;;3.53;1.30;;;27.10;99.90;;;;;;5014699;28;20419;-56
2023/06/03 10:59:00;;;;;;;7.37;1.27;;;27.40;99.90;;;;;;5014299;28;20453;-57
2023/06/03 11:01:56;;;;;;;2.13;1.10;;;27.60;99.90;;;;;;5015140;28;20796;-57
2023/06/03 11:04:22;;;;;;;3.23;1.10;;;28.00;99.90;;;;;;5014763;28;20411;-57
2023/06/03 11:06:48;;;;;;;6.23;1.40;;;28.40;99.90;;;;;;5014126;28;20894;-55
2023/06/03 11:09:16;;;;;;;2.53;1.30;;;28.20;99.90;;;;;;5014467;28;20511;-54
2023/06/03 11:11:42;;;;;;;1.63;1.10;;;28.20;99.90;;;;;;5014518;28;20184;-56
2023/06/03 11:14:09;;;;;;;2.60;1.37;;;28.10;99.90;;;;;;5014459;28;20438;-56
2023/06/03 11:16:56;;;;;;;4.37;1.10;;;27.80;99.90;;;;;;5014135;28;20667;-56
2023/06/03 11:19:35;;;;;;;2.10;1.30;;;27.40;99.90;;;;;;5014748;28;20419;-56
2023/06/03 11:22:07;;;;;;;3.73;1.30;;;27.30;99.90;;;;;;5014355;28;20407;-56
2023/06/03 11:24:38;;;;;;;5.43;1.20;;;27.50;99.90;;;;;;5014278;28;20419;-56
2023/06/03 11:27:25;;;;;;;4.83;1.60;;;27.80;99.90;;;;;;5014261;28;20430;-56
2023/06/03 11:29:51;;;;;;;3.23;1.30;;;27.80;99.90;;;;;;5014570;28;20408;-56
2023/06/03 11:32:36;;;;;;;3.67;1.33;;;27.80;99.90;;;;;;5014206;28;20941;-56
2023/06/03 11:35:04;;;;;;;2.60;1.20;;;27.80;99.90;;;;;;5014145;28;20663;-56
2023/06/03 11:37:48;;;;;;;5.40;1.40;;;27.90;99.90;;;;;;5013319;28;20475;-56
2023/06/03 11:40:19;;;;;;;1.20;1.10;;;28.10;99.90;;;;;;5014430;28;20408;-56
2023/06/03 11:42:50;;;;;;;1.77;1.20;;;28.10;99.90;;;;;;4997153;28;20775;-56
2023/06/03 11:45:26;;;;;;;4.50;1.10;;;28.30;99.90;;;;;;5013727;28;20427;-56
2023/06/03 11:47:58;;;;;;;1.50;1.10;;;28.10;99.90;;;;;;5014270;28;20488;-57
2023/06/03 11:50:28;;;;;;;4.10;1.23;;;28.40;99.90;;;;;;5013624;28;20434;-56
2023/06/03 11:52:54;;;;;;;1.40;1.10;;;28.30;99.90;;;;;;5013896;28;20427;-57
2023/06/03 11:55:22;;;;;;;1.80;1.10;;;28.20;99.90;;;;;;5014218;28;20430;-55
2023/06/03 11:57:48;;;;;;;1.30;1.20;;;27.60;99.90;;;;;;5013264;28;20490;-56
2023/06/03 12:00:15;;;;;;;1.83;1.07;;;27.10;99.90;;;;;;5013760;28;20526;-55
2023/06/03 12:02:42;;;;;;;1.10;1.00;;;26.70;99.90;;;;;;5013805;28;20202;-56
2023/06/03 12:05:08;;;;;;;3.37;1.10;;;26.70;99.90;;;;;;5013193;28;20509;-54
2023/06/03 12:07:34;;;;;;;1.20;1.00;;;27.00;99.90;;;;;;5013740;28;20502;-55
2023/06/03 12:10:00;;;;;;;4.07;1.07;;;27.40;99.90;;;;;;5013228;28;20803;-56
2023/06/03 12:12:25;;;;;;;1.90;1.50;;;27.70;99.90;;;;;;5013649;28;20180;-55
2023/06/03 12:14:51;;;;;;;2.10;1.20;;;28.30;99.90;;;;;;5013953;28;20180;-56
2023/06/03 12:17:18;;;;;;;1.30;1.20;;;28.50;99.90;;;;;;5013868;28;20204;-56
2023/06/03 12:19:46;;;;;;;2.03;1.40;;;28.70;99.90;;;;;;5013857;28;20194;-55
2023/06/03 12:22:13;;;;;;;2.37;1.23;;;28.80;99.90;;;;;;5013543;28;20439;-55
2023/06/03 12:24:43;;;;;;;4.67;1.30;;;29.00;99.90;;;;;;5013255;28;20827;-56
2023/06/03 12:27:22;;;;;;;2.40;1.30;;;29.00;99.90;;;;;;5013493;28;20458;-56
2023/06/03 12:29:55;;;;;;;1.20;1.10;;;29.10;99.90;;;;;;5013250;28;20430;-56
2023/06/03 12:32:21;;;;;;;2.40;1.37;;;29.30;99.90;;;;;;5013526;28;20406;-55
2023/06/03 12:34:48;;;;;;;2.20;1.13;;;29.10;99.90;;;;;;5016141;28;20429;-56
2023/06/03 12:37:28;;;;;;;2.80;1.30;;;29.20;99.90;;;;;;5017166;28;20474;-55
2023/06/03 12:39:54;;;;;;;1.80;1.23;;;28.60;99.90;;;;;;5017265;28;20422;-56
2023/06/03 12:42:21;;;;;;;2.03;1.20;;;27.40;99.90;;;;;;5017549;28;20423;-55
2023/06/03 12:44:52;;;;;;;2.13;1.70;;;26.80;99.90;;;;;;5016988;28;20423;-56
2023/06/03 12:47:20;;;;;;;2.37;1.40;;;26.50;99.90;;;;;;5017159;28;20882;-56
2023/06/03 12:50:02;;;;;;;1.60;1.33;;;26.50;99.90;;;;;;5016709;28;20415;-56
2023/06/03 12:52:28;;;;;;;1.60;1.13;;;26.50;99.90;;;;;;5016852;28;20917;-56
2023/06/03 12:54:54;;;;;;;3.57;1.30;;;26.90;99.90;;;;;;5017130;28;20420;-57
2023/06/03 12:57:21;;;;;;;4.70;1.40;;;27.40;99.90;;;;;;5016697;28;20235;-56
2023/06/03 13:00:08;;;;;;;2.30;1.10;;;28.00;99.90;;;;;;5016842;28;20180;-56